sensor_id;sensor_type;location;lat;lon;timestamp;P1;durP1;ratioP1;P2;durP2;ratioP2
37477;SDS011;23334;54.316;10.182;2024-03-25T00:00:58;2.60;;;2.40;;
37477;SDS011;23334;54.316;10.182;2024-03-25T00:03:24;2.77;;;2.20;;
37477;SDS011;23334;54.316;10.182;2024-03-25T00:05:50;1.93;;;1.70;;
37477;SDS011;23334;54.316;10.182;2024-03-25T00:08:16;2.60;;;2.00;;
37477;SDS011;23334;54.316;10.182;2024-03-25T00:10:42;2.33;;;2.00;;
37477;SDS011;23334;54.316;10.182;2024-03-25T00:13:08;3.50;;;2.43;;
37477;SDS011;23334;54.316;10.182;2024-03-25T00:15:35;2.17;;;1.97;;
37477;SDS011;23334;54.316;10.182;2024-03-25T00:18:02;2.50;;;2.30;;
37477;SDS011;23334;54.316;10.182;2024-03-25T00:20:28;5.07;;;2.60;;
37477;SDS011;23334;54.316;10.182;2024-03-25T00:22:54;2.53;;;2.20;;
37477;SDS011;23334;54.316;10.182;2024-03-25T00:25:19;2.40;;;2.13;;
37477;SDS011;23334;54.316;10.182;2024-03-25T00:27:45;2.57;;;2.37;;
37477;SDS011;23334;54.316;10.182;2024-03-25T00:30:11;2.43;;;2.00;;
37477;SDS011;23334;54.316;10.182;2024-03-25T00:32:37;4.20;;;2.23;;
37477;SDS011;23334;54.316;10.182;2024-03-25T00:35:03;2.70;;;2.43;;
37477;SDS011;23334;54.316;10.182;2024-03-25T00:37:29;2.17;;;1.97;;
37477;SDS011;23334;54.316;10.182;2024-03-25T00:39:54;1.90;;;1.80;;
37477;SDS011;23334;54.316;10.182;2024-03-25T00:42:20;4.90;;;2.77;;
37477;SDS011;23334;54.316;10.182;2024-03-25T00:44:46;4.27;;;1.90;;
37477;SDS011;23334;54.316;10.182;2024-03-25T00:47:12;2.10;;;1.87;;
37477;SDS011;23334;54.316;10.182;2024-03-25T00:49:38;2.53;;;2.30;;
37477;SDS011;23334;54.316;10.182;2024-03-25T00:52:04;3.23;;;2.40;;
37477;SDS011;23334;54.316;10.182;2024-03-25T00:54:30;2.93;;;1.90;;
37477;SDS011;23334;54.316;10.182;2024-03-25T00:56:55;2.53;;;2.20;;
37477;SDS011;23334;54.316;10.182;2024-03-25T00:59:21;2.00;;;1.80;;
37477;SDS011;23334;54.316;10.182;2024-03-25T01:01:47;1.83;;;1.73;;
37477;SDS011;23334;54.316;10.182;2024-03-25T01:04:13;1.97;;;1.43;;
37477;SDS011;23334;54.316;10.182;2024-03-25T01:06:38;2.37;;;2.20;;
37477;SDS011;23334;54.316;10.182;2024-03-25T01:09:04;3.43;;;2.00;;
37477;SDS011;23334;54.316;10.182;2024-03-25T01:11:32;2.03;;;1.90;;
37477;SDS011;23334;54.316;10.182;2024-03-25T01:13:58;2.03;;;1.87;;
37477;SDS011;23334;54.316;10.182;2024-03-25T01:16:23;3.10;;;2.10;;
37477;SDS011;23334;54.316;10.182;2024-03-25T01:18:49;3.03;;;2.10;;
37477;SDS011;23334;54.316;10.182;2024-03-25T01:21:15;2.23;;;2.10;;
37477;SDS011;23334;54.316;10.182;2024-03-25T01:23:41;3.70;;;2.03;;
37477;SDS011;23334;54.316;10.182;2024-03-25T01:26:06;2.70;;;2.10;;
37477;SDS011;23334;54.316;10.182;2024-03-25T01:28:32;1.90;;;1.80;;
37477;SDS011;23334;54.316;10.182;2024-03-25T01:30:57;2.47;;;2.33;;
37477;SDS011;23334;54.316;10.182;2024-03-25T01:33:23;2.47;;;2.30;;
37477;SDS011;23334;54.316;10.182;2024-03-25T01:35:49;1.87;;;1.60;;
37477;SDS011;23334;54.316;10.182;2024-03-25T01:38:15;3.57;;;2.70;;
37477;SDS011;23334;54.316;10.182;2024-03-25T01:40:41;2.37;;;2.20;;
37477;SDS011;23334;54.316;10.182;2024-03-25T01:43:07;2.53;;;2.30;;
37477;SDS011;23334;54.316;10.182;2024-03-25T01:45:33;4.00;;;2.80;;
37477;SDS011;23334;54.316;10.182;2024-03-25T01:48:01;4.37;;;2.80;;
37477;SDS011;23334;54.316;10.182;2024-03-25T01:50:28;4.33;;;2.43;;
37477;SDS011;23334;54.316;10.182;2024-03-25T01:52:54;3.60;;;2.90;;
37477;SDS011;23334;54.316;10.182;2024-03-25T01:55:21;2.40;;;2.10;;
37477;SDS011;23334;54.316;10.182;2024-03-25T01:57:47;3.43;;;2.40;;
37477;SDS011;23334;54.316;10.182;2024-03-25T02:00:14;3.07;;;2.43;;
37477;SDS011;23334;54.316;10.182;2024-03-25T02:02:41;3.97;;;2.57;;
37477;SDS011;23334;54.316;10.182;2024-03-25T02:05:09;6.33;;;2.63;;
37477;SDS011;23334;54.316;10.182;2024-03-25T02:07:35;3.17;;;2.63;;
37477;SDS011;23334;54.316;10.182;2024-03-25T02:10:02;2.63;;;2.40;;
37477;SDS011;23334;54.316;10.182;2024-03-25T02:12:29;3.93;;;2.50;;
37477;SDS011;23334;54.316;10.182;2024-03-25T02:14:58;5.50;;;2.60;;
37477;SDS011;23334;54.316;10.182;2024-03-25T02:17:24;3.43;;;2.67;;
37477;SDS011;23334;54.316;10.182;2024-03-25T02:19:50;7.37;;;2.80;;
37477;SDS011;23334;54.316;10.182;2024-03-25T02:22:16;3.63;;;2.57;;
37477;SDS011;23334;54.316;10.182;2024-03-25T02:24:42;2.80;;;2.60;;
37477;SDS011;23334;54.316;10.182;2024-03-25T02:27:10;4.60;;;2.80;;
37477;SDS011;23334;54.316;10.182;2024-03-25T02:29:39;3.67;;;2.70;;
37477;SDS011;23334;54.316;10.182;2024-03-25T02:32:05;3.20;;;2.40;;
37477;SDS011;23334;54.316;10.182;2024-03-25T02:34:31;4.80;;;3.00;;
37477;SDS011;23334;54.316;10.182;2024-03-25T02:36:57;3.00;;;2.80;;
37477;SDS011;23334;54.316;10.182;2024-03-25T02:39:22;3.20;;;2.10;;
37477;SDS011;23334;54.316;10.182;2024-03-25T02:41:49;4.30;;;3.07;;
37477;SDS011;23334;54.316;10.182;2024-03-25T02:44:15;6.00;;;2.73;;
37477;SDS011;23334;54.316;10.182;2024-03-25T02:46:41;4.83;;;2.10;;
37477;SDS011;23334;54.316;10.182;2024-03-25T02:49:07;3.23;;;2.93;;
37477;SDS011;23334;54.316;10.182;2024-03-25T02:51:33;4.10;;;2.63;;
37477;SDS011;23334;54.316;10.182;2024-03-25T02:53:59;3.70;;;3.07;;
37477;SDS011;23334;54.316;10.182;2024-03-25T02:56:24;6.20;;;2.63;;
37477;SDS011;23334;54.316;10.182;2024-03-25T02:58:50;3.30;;;2.40;;
37477;SDS011;23334;54.316;10.182;2024-03-25T03:01:16;3.23;;;2.53;;
37477;SDS011;23334;54.316;10.182;2024-03-25T03:03:42;2.80;;;2.60;;
37477;SDS011;23334;54.316;10.182;2024-03-25T03:06:08;2.67;;;2.47;;
37477;SDS011;23334;54.316;10.182;2024-03-25T03:08:34;10.40;;;2.93;;
37477;SDS011;23334;54.316;10.182;2024-03-25T03:11:00;10.37;;;2.77;;
37477;SDS011;23334;54.316;10.182;2024-03-25T03:13:26;3.40;;;2.50;;
37477;SDS011;23334;54.316;10.182;2024-03-25T03:15:52;3.63;;;2.90;;
37477;SDS011;23334;54.316;10.182;2024-03-25T03:18:18;4.13;;;2.80;;
37477;SDS011;23334;54.316;10.182;2024-03-25T03:20:44;6.67;;;2.80;;
37477;SDS011;23334;54.316;10.182;2024-03-25T03:23:10;3.97;;;2.80;;
37477;SDS011;23334;54.316;10.182;2024-03-25T03:25:36;5.23;;;2.50;;
37477;SDS011;23334;54.316;10.182;2024-03-25T03:28:02;5.07;;;2.83;;
37477;SDS011;23334;54.316;10.182;2024-03-25T03:30:28;9.60;;;2.93;;
37477;SDS011;23334;54.316;10.182;2024-03-25T03:32:53;7.90;;;2.10;;
37477;SDS011;23334;54.316;10.182;2024-03-25T03:35:19;5.87;;;2.87;;
37477;SDS011;23334;54.316;10.182;2024-03-25T03:37:44;3.97;;;2.90;;
37477;SDS011;23334;54.316;10.182;2024-03-25T03:40:10;4.20;;;2.67;;
37477;SDS011;23334;54.316;10.182;2024-03-25T03:42:36;3.97;;;2.20;;
37477;SDS011;23334;54.316;10.182;2024-03-25T03:45:02;4.07;;;2.10;;
37477;SDS011;23334;54.316;10.182;2024-03-25T03:47:28;2.60;;;2.33;;
37477;SDS011;23334;54.316;10.182;2024-03-25T03:49:54;2.57;;;2.00;;
37477;SDS011;23334;54.316;10.182;2024-03-25T03:52:20;3.97;;;1.80;;
37477;SDS011;23334;54.316;10.182;2024-03-25T03:54:46;3.13;;;1.80;;
37477;SDS011;23334;54.316;10.182;2024-03-25T03:57:12;5.03;;;1.93;;
37477;SDS011;23334;54.316;10.182;2024-03-25T03:59:38;6.73;;;1.50;;
37477;SDS011;23334;54.316;10.182;2024-03-25T04:02:03;1.97;;;1.37;;
37477;SDS011;23334;54.316;10.182;2024-03-25T04:04:29;2.67;;;1.40;;
37477;SDS011;23334;54.316;10.182;2024-03-25T04:06:55;2.03;;;1.50;;
37477;SDS011;23334;54.316;10.182;2024-03-25T04:09:21;2.07;;;1.97;;
37477;SDS011;23334;54.316;10.182;2024-03-25T04:11:48;2.27;;;2.00;;
37477;SDS011;23334;54.316;10.182;2024-03-25T04:14:14;5.60;;;2.00;;
37477;SDS011;23334;54.316;10.182;2024-03-25T04:16:40;2.70;;;1.40;;
37477;SDS011;23334;54.316;10.182;2024-03-25T04:19:06;2.00;;;1.90;;
37477;SDS011;23334;54.316;10.182;2024-03-25T04:21:32;3.17;;;2.20;;
37477;SDS011;23334;54.316;10.182;2024-03-25T04:23:57;3.47;;;2.10;;
37477;SDS011;23334;54.316;10.182;2024-03-25T04:26:23;3.00;;;1.97;;
37477;SDS011;23334;54.316;10.182;2024-03-25T04:28:49;2.20;;;1.47;;
37477;SDS011;23334;54.316;10.182;2024-03-25T04:31:15;1.77;;;1.37;;
37477;SDS011;23334;54.316;10.182;2024-03-25T04:33:41;2.13;;;1.27;;
37477;SDS011;23334;54.316;10.182;2024-03-25T04:36:07;2.90;;;1.37;;
37477;SDS011;23334;54.316;10.182;2024-03-25T04:38:32;1.63;;;1.33;;
37477;SDS011;23334;54.316;10.182;2024-03-25T04:40:58;2.10;;;1.50;;
37477;SDS011;23334;54.316;10.182;2024-03-25T04:43:24;5.77;;;2.07;;
37477;SDS011;23334;54.316;10.182;2024-03-25T04:45:50;6.37;;;1.73;;
37477;SDS011;23334;54.316;10.182;2024-03-25T04:48:15;1.77;;;1.20;;
37477;SDS011;23334;54.316;10.182;2024-03-25T04:50:41;1.30;;;1.20;;
37477;SDS011;23334;54.316;10.182;2024-03-25T04:53:07;2.23;;;1.03;;
37477;SDS011;23334;54.316;10.182;2024-03-25T04:55:33;1.73;;;1.40;;
37477;SDS011;23334;54.316;10.182;2024-03-25T04:57:59;2.70;;;1.27;;
37477;SDS011;23334;54.316;10.182;2024-03-25T05:00:25;1.30;;;1.20;;
37477;SDS011;23334;54.316;10.182;2024-03-25T05:02:50;2.10;;;1.43;;
37477;SDS011;23334;54.316;10.182;2024-03-25T05:05:16;2.30;;;1.80;;
37477;SDS011;23334;54.316;10.182;2024-03-25T05:07:41;1.30;;;1.20;;
37477;SDS011;23334;54.316;10.182;2024-03-25T05:10:07;4.93;;;1.27;;
37477;SDS011;23334;54.316;10.182;2024-03-25T05:12:33;1.40;;;1.07;;
37477;SDS011;23334;54.316;10.182;2024-03-25T05:14:59;1.57;;;1.47;;
37477;SDS011;23334;54.316;10.182;2024-03-25T05:17:25;1.83;;;1.10;;
37477;SDS011;23334;54.316;10.182;2024-03-25T05:19:51;3.37;;;1.33;;
37477;SDS011;23334;54.316;10.182;2024-03-25T05:22:17;3.30;;;2.67;;
37477;SDS011;23334;54.316;10.182;2024-03-25T05:24:43;1.77;;;1.20;;
37477;SDS011;23334;54.316;10.182;2024-03-25T05:27:08;3.50;;;1.37;;
37477;SDS011;23334;54.316;10.182;2024-03-25T05:29:34;1.30;;;1.20;;
37477;SDS011;23334;54.316;10.182;2024-03-25T05:32:00;2.60;;;1.57;;
37477;SDS011;23334;54.316;10.182;2024-03-25T05:34:27;2.70;;;1.97;;
37477;SDS011;23334;54.316;10.182;2024-03-25T05:36:53;1.70;;;1.13;;
37477;SDS011;23334;54.316;10.182;2024-03-25T05:39:19;1.47;;;1.30;;
37477;SDS011;23334;54.316;10.182;2024-03-25T05:41:46;1.60;;;1.50;;
37477;SDS011;23334;54.316;10.182;2024-03-25T05:44:12;3.07;;;1.83;;
37477;SDS011;23334;54.316;10.182;2024-03-25T05:46:38;1.97;;;1.47;;
37477;SDS011;23334;54.316;10.182;2024-03-25T05:49:04;2.97;;;1.23;;
37477;SDS011;23334;54.316;10.182;2024-03-25T05:51:30;2.37;;;1.10;;
37477;SDS011;23334;54.316;10.182;2024-03-25T05:53:58;1.40;;;1.30;;
37477;SDS011;23334;54.316;10.182;2024-03-25T05:56:24;6.87;;;1.50;;
37477;SDS011;23334;54.316;10.182;2024-03-25T05:58:55;4.20;;;1.70;;
37477;SDS011;23334;54.316;10.182;2024-03-25T06:01:23;1.43;;;1.23;;
37477;SDS011;23334;54.316;10.182;2024-03-25T06:03:49;3.93;;;1.60;;
37477;SDS011;23334;54.316;10.182;2024-03-25T06:06:15;4.10;;;1.03;;
37477;SDS011;23334;54.316;10.182;2024-03-25T06:08:41;4.33;;;1.10;;
37477;SDS011;23334;54.316;10.182;2024-03-25T06:11:06;2.40;;;1.47;;
37477;SDS011;23334;54.316;10.182;2024-03-25T06:13:32;1.50;;;1.40;;
37477;SDS011;23334;54.316;10.182;2024-03-25T06:15:58;4.40;;;1.47;;
37477;SDS011;23334;54.316;10.182;2024-03-25T06:18:24;3.57;;;1.57;;
37477;SDS011;23334;54.316;10.182;2024-03-25T06:20:50;5.20;;;1.47;;
37477;SDS011;23334;54.316;10.182;2024-03-25T06:23:22;2.17;;;1.53;;
37477;SDS011;23334;54.316;10.182;2024-03-25T06:25:49;3.40;;;1.23;;
37477;SDS011;23334;54.316;10.182;2024-03-25T06:28:15;1.37;;;1.27;;
37477;SDS011;23334;54.316;10.182;2024-03-25T06:30:40;2.17;;;1.40;;
37477;SDS011;23334;54.316;10.182;2024-03-25T06:33:24;1.83;;;1.20;;
37477;SDS011;23334;54.316;10.182;2024-03-25T06:36:09;3.83;;;1.40;;
37477;SDS011;23334;54.316;10.182;2024-03-25T06:38:34;1.63;;;1.53;;
37477;SDS011;23334;54.316;10.182;2024-03-25T06:41:00;4.67;;;2.20;;
37477;SDS011;23334;54.316;10.182;2024-03-25T06:43:26;4.53;;;1.10;;
37477;SDS011;23334;54.316;10.182;2024-03-25T06:45:52;6.30;;;1.60;;
37477;SDS011;23334;54.316;10.182;2024-03-25T06:48:18;2.73;;;1.20;;
37477;SDS011;23334;54.316;10.182;2024-03-25T06:50:53;1.60;;;0.77;;
37477;SDS011;23334;54.316;10.182;2024-03-25T06:53:20;1.13;;;1.03;;
37477;SDS011;23334;54.316;10.182;2024-03-25T06:55:55;3.60;;;1.77;;
37477;SDS011;23334;54.316;10.182;2024-03-25T06:58:23;2.33;;;0.93;;
37477;SDS011;23334;54.316;10.182;2024-03-25T07:00:49;1.13;;;1.03;;
37477;SDS011;23334;54.316;10.182;2024-03-25T07:03:15;2.93;;;1.40;;
37477;SDS011;23334;54.316;10.182;2024-03-25T07:05:43;1.23;;;0.80;;
37477;SDS011;23334;54.316;10.182;2024-03-25T07:08:10;1.87;;;0.90;;
37477;SDS011;23334;54.316;10.182;2024-03-25T07:10:36;2.40;;;1.10;;
37477;SDS011;23334;54.316;10.182;2024-03-25T07:13:02;2.50;;;1.33;;
37477;SDS011;23334;54.316;10.182;2024-03-25T07:15:28;2.80;;;1.50;;
37477;SDS011;23334;54.316;10.182;2024-03-25T07:17:54;1.90;;;1.20;;
37477;SDS011;23334;54.316;10.182;2024-03-25T07:20:20;1.63;;;0.80;;
37477;SDS011;23334;54.316;10.182;2024-03-25T07:22:47;2.83;;;1.40;;
37477;SDS011;23334;54.316;10.182;2024-03-25T07:25:13;3.00;;;1.60;;
37477;SDS011;23334;54.316;10.182;2024-03-25T07:27:39;4.10;;;1.30;;
37477;SDS011;23334;54.316;10.182;2024-03-25T07:30:05;3.93;;;2.17;;
37477;SDS011;23334;54.316;10.182;2024-03-25T07:32:32;1.57;;;1.23;;
37477;SDS011;23334;54.316;10.182;2024-03-25T07:34:58;2.73;;;1.53;;
37477;SDS011;23334;54.316;10.182;2024-03-25T07:37:23;2.80;;;1.23;;
37477;SDS011;23334;54.316;10.182;2024-03-25T07:39:49;2.00;;;1.50;;
37477;SDS011;23334;54.316;10.182;2024-03-25T07:42:14;2.90;;;1.53;;
37477;SDS011;23334;54.316;10.182;2024-03-25T07:44:40;2.33;;;1.03;;
37477;SDS011;23334;54.316;10.182;2024-03-25T07:47:06;3.93;;;1.40;;
37477;SDS011;23334;54.316;10.182;2024-03-25T07:49:33;3.70;;;1.43;;
37477;SDS011;23334;54.316;10.182;2024-03-25T07:51:59;1.00;;;0.90;;
37477;SDS011;23334;54.316;10.182;2024-03-25T07:54:25;2.53;;;1.20;;
37477;SDS011;23334;54.316;10.182;2024-03-25T07:56:51;2.50;;;1.30;;
37477;SDS011;23334;54.316;10.182;2024-03-25T07:59:17;2.87;;;1.23;;
37477;SDS011;23334;54.316;10.182;2024-03-25T08:01:43;3.10;;;0.83;;
37477;SDS011;23334;54.316;10.182;2024-03-25T08:04:09;6.00;;;1.37;;
37477;SDS011;23334;54.316;10.182;2024-03-25T08:06:35;1.90;;;1.17;;
37477;SDS011;23334;54.316;10.182;2024-03-25T08:09:01;3.37;;;1.57;;
37477;SDS011;23334;54.316;10.182;2024-03-25T08:11:30;2.40;;;1.20;;
37477;SDS011;23334;54.316;10.182;2024-03-25T08:13:56;6.37;;;1.53;;
37477;SDS011;23334;54.316;10.182;2024-03-25T08:16:21;1.20;;;1.00;;
37477;SDS011;23334;54.316;10.182;2024-03-25T08:18:47;6.53;;;1.80;;
37477;SDS011;23334;54.316;10.182;2024-03-25T08:21:14;4.00;;;1.43;;
37477;SDS011;23334;54.316;10.182;2024-03-25T08:23:39;3.27;;;1.07;;
37477;SDS011;23334;54.316;10.182;2024-03-25T08:26:05;4.27;;;1.00;;
37477;SDS011;23334;54.316;10.182;2024-03-25T08:28:31;4.10;;;1.17;;
37477;SDS011;23334;54.316;10.182;2024-03-25T08:30:57;2.13;;;1.00;;
37477;SDS011;23334;54.316;10.182;2024-03-25T08:33:23;5.13;;;1.60;;
37477;SDS011;23334;54.316;10.182;2024-03-25T08:35:49;4.83;;;1.33;;
37477;SDS011;23334;54.316;10.182;2024-03-25T08:38:15;3.23;;;1.53;;
37477;SDS011;23334;54.316;10.182;2024-03-25T08:40:40;1.53;;;0.97;;
37477;SDS011;23334;54.316;10.182;2024-03-25T08:43:06;5.43;;;1.30;;
37477;SDS011;23334;54.316;10.182;2024-03-25T08:45:32;4.17;;;1.10;;
37477;SDS011;23334;54.316;10.182;2024-03-25T08:47:58;4.93;;;1.50;;
37477;SDS011;23334;54.316;10.182;2024-03-25T08:50:23;11.43;;;1.97;;
37477;SDS011;23334;54.316;10.182;2024-03-25T08:52:49;5.10;;;1.40;;
37477;SDS011;23334;54.316;10.182;2024-03-25T08:55:15;7.93;;;2.20;;
37477;SDS011;23334;54.316;10.182;2024-03-25T08:57:41;5.53;;;1.30;;
37477;SDS011;23334;54.316;10.182;2024-03-25T09:00:07;3.50;;;1.20;;
37477;SDS011;23334;54.316;10.182;2024-03-25T09:02:37;3.27;;;1.30;;
37477;SDS011;23334;54.316;10.182;2024-03-25T09:05:02;3.63;;;1.23;;
37477;SDS011;23334;54.316;10.182;2024-03-25T09:07:38;7.07;;;1.70;;
37477;SDS011;23334;54.316;10.182;2024-03-25T09:10:04;6.50;;;1.30;;
37477;SDS011;23334;54.316;10.182;2024-03-25T09:12:48;3.90;;;1.40;;
37477;SDS011;23334;54.316;10.182;2024-03-25T09:15:14;3.27;;;1.67;;
37477;SDS011;23334;54.316;10.182;2024-03-25T09:17:40;6.60;;;1.70;;
37477;SDS011;23334;54.316;10.182;2024-03-25T09:20:06;2.40;;;1.57;;
37477;SDS011;23334;54.316;10.182;2024-03-25T09:22:42;3.87;;;1.13;;
37477;SDS011;23334;54.316;10.182;2024-03-25T09:25:08;15.33;;;1.50;;
37477;SDS011;23334;54.316;10.182;2024-03-25T09:27:33;6.20;;;1.80;;
37477;SDS011;23334;54.316;10.182;2024-03-25T09:29:59;5.00;;;1.17;;
37477;SDS011;23334;54.316;10.182;2024-03-25T09:32:25;2.33;;;1.07;;
37477;SDS011;23334;54.316;10.182;2024-03-25T09:34:51;3.10;;;1.10;;
37477;SDS011;23334;54.316;10.182;2024-03-25T09:37:17;8.40;;;1.40;;
37477;SDS011;23334;54.316;10.182;2024-03-25T09:39:43;6.10;;;1.00;;
37477;SDS011;23334;54.316;10.182;2024-03-25T09:42:09;3.50;;;1.20;;
37477;SDS011;23334;54.316;10.182;2024-03-25T09:44:37;5.50;;;1.50;;
37477;SDS011;23334;54.316;10.182;2024-03-25T09:47:02;4.23;;;1.53;;
37477;SDS011;23334;54.316;10.182;2024-03-25T09:49:28;3.67;;;1.13;;
37477;SDS011;23334;54.316;10.182;2024-03-25T09:51:55;2.93;;;1.07;;
37477;SDS011;23334;54.316;10.182;2024-03-25T09:54:22;7.80;;;2.40;;
37477;SDS011;23334;54.316;10.182;2024-03-25T09:56:48;1.50;;;0.80;;
37477;SDS011;23334;54.316;10.182;2024-03-25T09:59:15;5.40;;;1.80;;
37477;SDS011;23334;54.316;10.182;2024-03-25T10:01:41;2.77;;;1.23;;
37477;SDS011;23334;54.316;10.182;2024-03-25T10:04:08;1.40;;;0.90;;
37477;SDS011;23334;54.316;10.182;2024-03-25T10:06:34;5.07;;;1.63;;
37477;SDS011;23334;54.316;10.182;2024-03-25T10:09:00;8.87;;;1.70;;
37477;SDS011;23334;54.316;10.182;2024-03-25T10:11:26;3.97;;;1.20;;
37477;SDS011;23334;54.316;10.182;2024-03-25T10:13:53;7.63;;;1.67;;
37477;SDS011;23334;54.316;10.182;2024-03-25T10:16:18;3.60;;;1.40;;
37477;SDS011;23334;54.316;10.182;2024-03-25T10:18:44;2.03;;;0.77;;
37477;SDS011;23334;54.316;10.182;2024-03-25T10:21:11;4.43;;;1.17;;
37477;SDS011;23334;54.316;10.182;2024-03-25T10:23:39;5.03;;;1.17;;
37477;SDS011;23334;54.316;10.182;2024-03-25T10:26:07;2.40;;;1.10;;
37477;SDS011;23334;54.316;10.182;2024-03-25T10:28:33;2.60;;;1.37;;
37477;SDS011;23334;54.316;10.182;2024-03-25T10:31:04;7.33;;;1.90;;
37477;SDS011;23334;54.316;10.182;2024-03-25T10:33:30;8.63;;;1.37;;
37477;SDS011;23334;54.316;10.182;2024-03-25T10:35:56;4.97;;;1.40;;
37477;SDS011;23334;54.316;10.182;2024-03-25T10:38:24;4.50;;;1.53;;
37477;SDS011;23334;54.316;10.182;2024-03-25T10:40:50;8.27;;;1.70;;
37477;SDS011;23334;54.316;10.182;2024-03-25T10:43:20;8.50;;;1.13;;
37477;SDS011;23334;54.316;10.182;2024-03-25T10:45:49;2.47;;;1.10;;
37477;SDS011;23334;54.316;10.182;2024-03-25T10:48:19;8.77;;;1.50;;
37477;SDS011;23334;54.316;10.182;2024-03-25T10:50:51;4.77;;;1.83;;
37477;SDS011;23334;54.316;10.182;2024-03-25T10:53:18;2.50;;;1.00;;
37477;SDS011;23334;54.316;10.182;2024-03-25T10:55:48;11.20;;;2.73;;
37477;SDS011;23334;54.316;10.182;2024-03-25T10:58:16;10.33;;;1.73;;
37477;SDS011;23334;54.316;10.182;2024-03-25T11:00:44;6.90;;;1.57;;
37477;SDS011;23334;54.316;10.182;2024-03-25T11:03:10;2.33;;;1.40;;
37477;SDS011;23334;54.316;10.182;2024-03-25T11:05:36;12.23;;;1.37;;
37477;SDS011;23334;54.316;10.182;2024-03-25T11:08:09;2.93;;;1.30;;
37477;SDS011;23334;54.316;10.182;2024-03-25T11:10:41;10.77;;;1.30;;
37477;SDS011;23334;54.316;10.182;2024-03-25T11:13:12;5.90;;;2.00;;
37477;SDS011;23334;54.316;10.182;2024-03-25T11:15:43;13.70;;;2.33;;
37477;SDS011;23334;54.316;10.182;2024-03-25T11:18:10;4.17;;;1.23;;
37477;SDS011;23334;54.316;10.182;2024-03-25T11:20:37;5.83;;;1.03;;
37477;SDS011;23334;54.316;10.182;2024-03-25T11:23:07;4.77;;;1.30;;
37477;SDS011;23334;54.316;10.182;2024-03-25T11:25:34;4.53;;;1.40;;
37477;SDS011;23334;54.316;10.182;2024-03-25T11:28:00;4.13;;;1.10;;
37477;SDS011;23334;54.316;10.182;2024-03-25T11:30:26;2.90;;;1.50;;
37477;SDS011;23334;54.316;10.182;2024-03-25T11:32:53;2.03;;;1.10;;
37477;SDS011;23334;54.316;10.182;2024-03-25T11:35:19;4.73;;;1.27;;
37477;SDS011;23334;54.316;10.182;2024-03-25T11:37:45;8.77;;;1.57;;
37477;SDS011;23334;54.316;10.182;2024-03-25T11:40:11;5.40;;;1.10;;
37477;SDS011;23334;54.316;10.182;2024-03-25T11:42:40;4.93;;;1.20;;
37477;SDS011;23334;54.316;10.182;2024-03-25T11:45:07;4.90;;;1.47;;
37477;SDS011;23334;54.316;10.182;2024-03-25T11:47:33;3.47;;;1.17;;
37477;SDS011;23334;54.316;10.182;2024-03-25T11:50:00;4.37;;;1.07;;
37477;SDS011;23334;54.316;10.182;2024-03-25T11:52:32;2.17;;;0.80;;
37477;SDS011;23334;54.316;10.182;2024-03-25T11:54:57;8.43;;;1.27;;
37477;SDS011;23334;54.316;10.182;2024-03-25T11:57:23;3.30;;;1.07;;
37477;SDS011;23334;54.316;10.182;2024-03-25T11:59:49;2.70;;;0.90;;
37477;SDS011;23334;54.316;10.182;2024-03-25T12:02:16;6.20;;;0.90;;
37477;SDS011;23334;54.316;10.182;2024-03-25T12:04:42;4.20;;;0.70;;
37477;SDS011;23334;54.316;10.182;2024-03-25T12:07:10;5.47;;;1.47;;
37477;SDS011;23334;54.316;10.182;2024-03-25T12:09:39;3.47;;;1.20;;
37477;SDS011;23334;54.316;10.182;2024-03-25T12:12:24;3.57;;;1.47;;
37477;SDS011;23334;54.316;10.182;2024-03-25T12:14:50;1.50;;;0.80;;
37477;SDS011;23334;54.316;10.182;2024-03-25T12:17:16;1.97;;;0.87;;
37477;SDS011;23334;54.316;10.182;2024-03-25T12:19:42;2.83;;;1.17;;
37477;SDS011;23334;54.316;10.182;2024-03-25T12:22:08;3.60;;;1.07;;
37477;SDS011;23334;54.316;10.182;2024-03-25T12:24:33;6.47;;;1.17;;
37477;SDS011;23334;54.316;10.182;2024-03-25T12:27:00;4.50;;;1.20;;
37477;SDS011;23334;54.316;10.182;2024-03-25T12:29:26;3.53;;;1.00;;
37477;SDS011;23334;54.316;10.182;2024-03-25T12:31:55;3.00;;;0.80;;
37477;SDS011;23334;54.316;10.182;2024-03-25T12:34:21;6.17;;;1.30;;
37477;SDS011;23334;54.316;10.182;2024-03-25T12:36:47;3.43;;;0.90;;
37477;SDS011;23334;54.316;10.182;2024-03-25T12:39:17;3.23;;;0.90;;
37477;SDS011;23334;54.316;10.182;2024-03-25T12:41:44;11.43;;;1.67;;
37477;SDS011;23334;54.316;10.182;2024-03-25T12:44:11;3.83;;;1.63;;
37477;SDS011;23334;54.316;10.182;2024-03-25T12:46:37;2.67;;;0.93;;
37477;SDS011;23334;54.316;10.182;2024-03-25T12:49:04;5.00;;;1.30;;
37477;SDS011;23334;54.316;10.182;2024-03-25T12:51:30;2.17;;;1.07;;
37477;SDS011;23334;54.316;10.182;2024-03-25T12:53:56;3.27;;;1.27;;
37477;SDS011;23334;54.316;10.182;2024-03-25T12:56:21;1.07;;;0.70;;
37477;SDS011;23334;54.316;10.182;2024-03-25T12:58:47;6.47;;;0.80;;
37477;SDS011;23334;54.316;10.182;2024-03-25T13:01:14;7.87;;;1.93;;
37477;SDS011;23334;54.316;10.182;2024-03-25T13:03:40;2.37;;;1.00;;
37477;SDS011;23334;54.316;10.182;2024-03-25T13:06:06;3.87;;;0.97;;
37477;SDS011;23334;54.316;10.182;2024-03-25T13:08:32;3.97;;;1.00;;
37477;SDS011;23334;54.316;10.182;2024-03-25T13:10:58;1.47;;;0.77;;
37477;SDS011;23334;54.316;10.182;2024-03-25T13:13:24;3.07;;;0.80;;
37477;SDS011;23334;54.316;10.182;2024-03-25T13:15:50;0.90;;;0.80;;
37477;SDS011;23334;54.316;10.182;2024-03-25T13:18:16;1.13;;;0.70;;
37477;SDS011;23334;54.316;10.182;2024-03-25T13:20:43;2.27;;;1.10;;
37477;SDS011;23334;54.316;10.182;2024-03-25T13:23:09;3.53;;;0.83;;
37477;SDS011;23334;54.316;10.182;2024-03-25T13:25:34;6.53;;;1.00;;
37477;SDS011;23334;54.316;10.182;2024-03-25T13:28:00;4.70;;;1.10;;
37477;SDS011;23334;54.316;10.182;2024-03-25T13:30:26;5.60;;;1.43;;
37477;SDS011;23334;54.316;10.182;2024-03-25T13:32:52;2.70;;;1.10;;
37477;SDS011;23334;54.316;10.182;2024-03-25T13:35:18;3.37;;;1.17;;
37477;SDS011;23334;54.316;10.182;2024-03-25T13:37:44;2.33;;;0.93;;
37477;SDS011;23334;54.316;10.182;2024-03-25T13:40:10;5.73;;;1.13;;
37477;SDS011;23334;54.316;10.182;2024-03-25T13:42:39;2.10;;;0.87;;
37477;SDS011;23334;54.316;10.182;2024-03-25T13:45:05;4.70;;;1.47;;
37477;SDS011;23334;54.316;10.182;2024-03-25T13:47:31;4.30;;;1.00;;
37477;SDS011;23334;54.316;10.182;2024-03-25T13:50:04;3.43;;;1.27;;
37477;SDS011;23334;54.316;10.182;2024-03-25T13:52:32;6.77;;;1.60;;
37477;SDS011;23334;54.316;10.182;2024-03-25T13:54:58;2.10;;;0.80;;
37477;SDS011;23334;54.316;10.182;2024-03-25T13:57:24;4.77;;;1.50;;
37477;SDS011;23334;54.316;10.182;2024-03-25T13:59:50;5.70;;;1.03;;
37477;SDS011;23334;54.316;10.182;2024-03-25T14:02:16;5.90;;;1.43;;
37477;SDS011;23334;54.316;10.182;2024-03-25T14:04:42;7.07;;;1.33;;
37477;SDS011;23334;54.316;10.182;2024-03-25T14:07:08;6.27;;;1.20;;
37477;SDS011;23334;54.316;10.182;2024-03-25T14:09:35;2.40;;;0.67;;
37477;SDS011;23334;54.316;10.182;2024-03-25T14:12:00;1.20;;;0.70;;
37477;SDS011;23334;54.316;10.182;2024-03-25T14:14:26;8.00;;;1.20;;
37477;SDS011;23334;54.316;10.182;2024-03-25T14:16:53;3.00;;;1.10;;
37477;SDS011;23334;54.316;10.182;2024-03-25T14:19:19;7.67;;;2.70;;
37477;SDS011;23334;54.316;10.182;2024-03-25T14:21:44;5.10;;;0.90;;
37477;SDS011;23334;54.316;10.182;2024-03-25T14:24:10;2.57;;;1.40;;
37477;SDS011;23334;54.316;10.182;2024-03-25T14:26:36;3.73;;;1.27;;
37477;SDS011;23334;54.316;10.182;2024-03-25T14:29:02;3.60;;;1.17;;